createdAt,value
2019-03-18T00:01:07.089Z,2.80
2019-03-18T00:03:48.433Z,2.80
2019-03-18T00:06:29.247Z,2.80
2019-03-18T00:09:10.755Z,2.70
2019-03-18T00:11:51.901Z,2.60
2019-03-18T00:14:32.978Z,2.60
2019-03-18T00:17:14.186Z,2.70
2019-03-18T00:19:55.295Z,2.70
2019-03-18T00:22:36.825Z,2.70
2019-03-18T00:25:18.030Z,2.70
2019-03-18T00:27:59.594Z,2.70
2019-03-18T00:30:41.047Z,2.70
2019-03-18T00:36:23.308Z,2.70
2019-03-18T00:38:53.038Z,2.60
2019-03-18T00:41:41.415Z,2.60
2019-03-18T00:44:29.843Z,2.60
2019-03-18T00:50:27.362Z,2.60
2019-03-18T00:53:15.793Z,2.60
2019-03-18T00:56:04.459Z,2.60
2019-03-18T00:58:53.211Z,2.60
2019-03-18T01:01:34.046Z,2.60
2019-03-18T01:04:15.272Z,2.60
2019-03-18T01:06:55.831Z,2.60
2019-03-18T01:09:37.298Z,2.60
2019-03-18T01:12:18.338Z,2.50
2019-03-18T01:14:47.569Z,2.50
2019-03-18T01:17:35.963Z,2.40
2019-03-18T01:20:24.624Z,2.40
2019-03-18T01:23:13.040Z,2.40
2019-03-18T01:26:01.462Z,2.40
2019-03-18T01:28:50.253Z,2.30
2019-03-18T01:31:38.750Z,2.40
2019-03-18T01:34:27.193Z,2.30
2019-03-18T01:37:15.565Z,2.30
2019-03-18T01:40:04.170Z,2.40
2019-03-18T01:42:52.585Z,2.30
2019-03-18T01:45:41.294Z,2.30
2019-03-18T01:48:31.061Z,2.20
2019-03-18T01:51:00.517Z,2.30
2019-03-18T01:53:48.899Z,2.30
2019-03-18T01:56:37.223Z,2.20
2019-03-18T01:59:25.896Z,2.10
2019-03-18T02:02:07.343Z,2.10
2019-03-18T02:04:48.414Z,2.10
2019-03-18T02:07:29.021Z,2.10
2019-03-18T02:10:10.118Z,2.10
2019-03-18T02:12:51.182Z,2.20
2019-03-18T02:15:32.418Z,2.20
2019-03-18T02:18:13.002Z,2.20
2019-03-18T02:20:53.811Z,2.10
2019-03-18T02:23:34.578Z,2.10
2019-03-18T02:26:16.216Z,2.10
2019-03-18T02:28:57.524Z,2.00
2019-03-18T02:31:38.243Z,2.00
2019-03-18T02:34:19.628Z,2.00
2019-03-18T02:37:01.051Z,2.10
2019-03-18T02:39:42.392Z,2.00
2019-03-18T02:42:23.739Z,2.00
2019-03-18T02:45:04.541Z,2.00
2019-03-18T02:47:46.249Z,2.00
2019-03-18T02:50:27.325Z,2.00
2019-03-18T02:53:08.723Z,2.00
2019-03-18T02:55:49.936Z,2.00
2019-03-18T02:58:30.508Z,2.00
2019-03-18T03:01:11.691Z,2.00
2019-03-18T03:03:53.294Z,2.00
2019-03-18T03:06:34.734Z,2.00
2019-03-18T03:09:15.982Z,2.00
2019-03-18T03:11:57.624Z,2.00
2019-03-18T03:14:38.848Z,2.00
2019-03-18T03:17:21.837Z,2.00
2019-03-18T03:20:02.218Z,2.00
2019-03-18T03:22:43.808Z,2.00
2019-03-18T03:25:25.445Z,2.00
2019-03-18T03:28:06.877Z,2.00
2019-03-18T03:30:48.041Z,2.00
2019-03-18T03:33:29.299Z,2.00
2019-03-18T03:36:09.756Z,2.00
2019-03-18T03:38:51.221Z,2.00
2019-03-18T03:41:32.338Z,2.00
2019-03-18T03:44:13.625Z,1.90
2019-03-18T03:46:54.991Z,2.00
2019-03-18T03:49:36.375Z,2.00
2019-03-18T03:52:05.708Z,2.00
2019-03-18T03:54:54.438Z,2.00
2019-03-18T03:57:42.974Z,2.00
2019-03-18T04:00:23.879Z,2.00
2019-03-18T04:03:05.359Z,2.10
2019-03-18T04:05:46.424Z,2.10
2019-03-18T04:08:27.607Z,2.10
2019-03-18T04:11:09.286Z,2.10
2019-03-18T04:13:50.207Z,2.10
2019-03-18T04:16:31.536Z,2.00
2019-03-18T04:19:12.285Z,2.10
2019-03-18T04:21:52.931Z,2.10
2019-03-18T04:24:34.120Z,2.20
2019-03-18T04:27:15.383Z,2.20
2019-03-18T04:29:56.909Z,2.20
2019-03-18T04:32:38.295Z,2.30
2019-03-18T04:35:19.798Z,2.30
2019-03-18T04:38:00.826Z,2.30
2019-03-18T04:40:41.954Z,2.20
2019-03-18T04:43:23.042Z,2.30
2019-03-18T04:46:04.217Z,2.30
2019-03-18T04:48:44.933Z,2.20
2019-03-18T04:51:14.524Z,2.20
2019-03-18T04:57:31.168Z,2.30
2019-03-18T05:00:19.585Z,2.40
2019-03-18T05:03:00.546Z,2.30
2019-03-18T05:05:41.824Z,2.30
2019-03-18T05:08:21.432Z,2.40
2019-03-18T05:11:09.857Z,2.40
2019-03-18T05:13:58.391Z,2.40
2019-03-18T05:16:47.173Z,2.40
2019-03-18T05:19:35.643Z,2.40
2019-03-18T05:22:24.204Z,2.50
2019-03-18T05:25:12.578Z,2.50
2019-03-18T05:28:01.056Z,2.50
2019-03-18T05:30:49.889Z,2.60
2019-03-18T05:33:38.286Z,2.60
2019-03-18T05:36:26.667Z,2.70
2019-03-18T05:39:15.086Z,2.70
2019-03-18T05:42:03.581Z,2.60
2019-03-18T05:44:51.973Z,2.60
2019-03-18T05:47:40.376Z,2.40
2019-03-18T05:50:28.819Z,2.50
2019-03-18T05:53:17.202Z,2.60
2019-03-18T05:56:05.833Z,2.80
2019-03-18T05:58:54.314Z,2.90
2019-03-18T06:01:35.668Z,2.90
2019-03-18T06:04:17.378Z,3.00
2019-03-18T06:06:58.410Z,2.90
2019-03-18T06:09:39.440Z,3.00
2019-03-18T06:12:20.324Z,2.90
2019-03-18T06:15:01.941Z,3.00
2019-03-18T06:17:52.455Z,3.10
2019-03-18T06:20:14.581Z,3.20
2019-03-18T06:23:02.970Z,3.20
2019-03-18T06:25:51.383Z,3.20
2019-03-18T06:28:39.889Z,3.20
2019-03-18T06:31:28.418Z,3.20
2019-03-18T06:34:17.599Z,3.20
2019-03-18T06:37:06.301Z,3.10
2019-03-18T06:45:30.787Z,3.40
2019-03-18T06:48:19.250Z,3.30
2019-03-18T06:51:07.818Z,3.40
2019-03-18T06:53:56.591Z,3.60
2019-03-18T06:56:46.943Z,3.70
2019-03-18T06:59:19.441Z,3.80
2019-03-18T07:02:00.240Z,4.00
2019-03-18T07:04:41.587Z,4.00
2019-03-18T07:07:22.496Z,4.00
2019-03-18T07:10:03.539Z,3.90
2019-03-18T07:12:44.201Z,4.00
2019-03-18T07:15:25.108Z,4.00
2019-03-18T07:18:17.677Z,3.90
2019-03-18T07:20:48.030Z,3.80
2019-03-18T07:23:29.199Z,3.90
2019-03-18T07:26:10.520Z,3.90
2019-03-18T07:28:51.969Z,3.90
2019-03-18T07:31:33.658Z,4.00
2019-03-18T07:34:14.798Z,4.10
2019-03-18T07:36:56.329Z,4.20
2019-03-18T07:39:37.686Z,4.50
2019-03-18T07:42:18.929Z,4.50
2019-03-18T07:44:59.738Z,4.60
2019-03-18T07:47:40.815Z,4.50
2019-03-18T07:50:22.223Z,4.90
2019-03-18T07:53:03.079Z,4.90
2019-03-18T07:55:44.095Z,5.00
2019-03-18T07:58:24.769Z,4.90
2019-03-18T08:01:05.575Z,4.70
2019-03-18T08:03:47.047Z,4.90
2019-03-18T08:06:27.637Z,5.00
2019-03-18T08:09:08.579Z,5.10
2019-03-18T08:11:38.065Z,5.20
2019-03-18T08:14:26.487Z,5.40
2019-03-18T08:17:14.884Z,5.40
2019-03-18T08:20:03.780Z,5.40
2019-03-18T08:22:53.665Z,5.30
2019-03-18T08:25:42.389Z,5.40
2019-03-18T08:28:30.970Z,6.00
2019-03-18T08:31:19.325Z,5.90
2019-03-18T08:34:07.763Z,5.80
2019-03-18T08:36:56.387Z,5.70
2019-03-18T08:39:44.997Z,5.60
2019-03-18T08:42:33.512Z,5.60
2019-03-18T08:45:03.022Z,5.40
2019-03-18T08:47:51.457Z,5.40
2019-03-18T08:53:47.419Z,5.70
2019-03-18T08:56:35.819Z,5.70
2019-03-18T08:59:24.273Z,5.70
2019-03-18T09:02:05.508Z,5.60
2019-03-18T09:04:46.845Z,5.50
2019-03-18T09:07:28.331Z,5.90
2019-03-18T09:10:09.880Z,5.70
2019-03-18T09:12:50.662Z,5.50
2019-03-18T09:15:32.064Z,5.40
2019-03-18T09:18:12.924Z,5.60
2019-03-18T09:20:55.957Z,5.90
2019-03-18T09:23:36.645Z,5.80
2019-03-18T09:26:17.238Z,5.90
2019-03-18T09:28:58.585Z,6.00
2019-03-18T09:31:39.684Z,6.40
2019-03-18T09:34:20.193Z,6.10
2019-03-18T09:37:01.514Z,6.40
2019-03-18T09:39:42.157Z,6.40
2019-03-18T09:42:23.200Z,6.60
2019-03-18T09:45:04.494Z,6.90
2019-03-18T09:47:45.995Z,6.80
2019-03-18T09:50:27.068Z,6.30
2019-03-18T09:53:09.850Z,6.60
2019-03-18T09:55:50.520Z,6.60
2019-03-18T09:58:31.750Z,6.70
2019-03-18T10:01:12.851Z,6.50
2019-03-18T10:03:54.303Z,6.90
2019-03-18T10:06:35.737Z,7.40
2019-03-18T10:09:16.923Z,7.20
2019-03-18T10:11:58.273Z,6.30
2019-03-18T10:14:39.113Z,6.30
2019-03-18T10:17:20.270Z,6.20
2019-03-18T10:20:01.619Z,6.30
2019-03-18T10:22:42.868Z,6.10
2019-03-18T10:25:23.763Z,6.20
2019-03-18T10:28:04.603Z,6.40
2019-03-18T10:30:45.207Z,7.00
2019-03-18T10:33:26.582Z,8.20
2019-03-18T10:36:07.849Z,8.70
2019-03-18T10:38:49.079Z,7.90
2019-03-18T10:41:30.335Z,7.60
2019-03-18T10:44:11.582Z,7.70
2019-03-18T10:46:52.870Z,7.60
2019-03-18T10:49:45.674Z,7.30
2019-03-18T10:52:16.688Z,7.30
2019-03-18T10:54:57.573Z,7.40
2019-03-18T10:57:38.843Z,7.50
2019-03-18T11:00:20.232Z,7.80
2019-03-18T11:03:01.562Z,7.70
2019-03-18T11:05:42.687Z,7.40
2019-03-18T11:08:23.957Z,7.00
2019-03-18T11:10:53.292Z,6.70
2019-03-18T11:13:41.680Z,6.60
2019-03-18T11:16:49.167Z,6.40
2019-03-18T11:19:37.754Z,5.90
2019-03-18T11:22:26.171Z,5.70
2019-03-18T11:25:14.543Z,5.60
2019-03-18T11:28:02.931Z,5.70
2019-03-18T11:30:32.337Z,5.80
2019-03-18T11:33:20.851Z,5.90
2019-03-18T11:39:03.499Z,6.50
2019-03-18T11:41:51.892Z,6.80
2019-03-18T11:44:40.297Z,7.00
2019-03-18T11:47:28.696Z,7.00
2019-03-18T11:50:09.979Z,6.90
2019-03-18T11:52:48.128Z,7.00
2019-03-18T11:55:17.552Z,6.80
2019-03-18T11:58:05.934Z,7.00
2019-03-18T12:00:54.379Z,7.40
2019-03-18T12:03:35.544Z,8.00
2019-03-18T12:09:17.542Z,7.80
2019-03-18T12:11:59.028Z,7.50
2019-03-18T12:14:40.024Z,7.60
2019-03-18T12:17:21.117Z,7.90
2019-03-18T12:20:02.253Z,8.40
2019-03-18T12:22:42.833Z,8.00
2019-03-18T12:25:24.288Z,7.80
2019-03-18T12:28:05.788Z,7.70
2019-03-18T12:30:46.945Z,7.80
2019-03-18T12:33:16.450Z,7.70
2019-03-18T12:36:04.812Z,7.50
2019-03-18T12:38:53.123Z,7.50
2019-03-18T12:41:41.553Z,7.40
2019-03-18T12:44:29.970Z,6.80
2019-03-18T12:47:18.391Z,6.50
2019-03-18T12:50:07.527Z,6.40
2019-03-18T12:52:56.540Z,6.30
2019-03-18T12:55:44.922Z,6.40
2019-03-18T12:58:33.273Z,6.40
2019-03-18T13:01:13.871Z,6.50
2019-03-18T13:03:55.022Z,6.50
2019-03-18T13:06:35.842Z,6.50
2019-03-18T13:09:16.791Z,6.40
2019-03-18T13:11:57.987Z,6.50
2019-03-18T13:14:38.659Z,6.40
2019-03-18T13:17:19.913Z,6.50
2019-03-18T13:19:49.288Z,6.30
2019-03-18T13:22:37.704Z,6.30
2019-03-18T13:25:26.110Z,6.50
2019-03-18T13:28:14.543Z,6.50
2019-03-18T13:31:02.917Z,6.60
2019-03-18T13:33:51.442Z,6.20
2019-03-18T13:36:40.036Z,6.00
2019-03-18T13:39:28.533Z,6.00
2019-03-18T13:41:58.228Z,6.00
2019-03-18T13:44:46.633Z,6.00
2019-03-18T13:47:35.048Z,6.10
2019-03-18T13:50:23.442Z,6.20
2019-03-18T13:53:11.930Z,6.40
2019-03-18T13:56:20.767Z,6.80
2019-03-18T13:59:09.196Z,7.50
2019-03-18T14:04:49.059Z,9.60
2019-03-18T14:07:30.234Z,10.10
2019-03-18T14:10:11.417Z,10.60
2019-03-18T14:12:52.529Z,10.80
2019-03-18T14:15:33.775Z,10.50
2019-03-18T14:18:15.231Z,8.70
2019-03-18T14:20:56.468Z,8.50
2019-03-18T14:23:37.924Z,8.50
2019-03-18T14:26:19.018Z,7.50
2019-03-18T14:29:00.625Z,7.70
2019-03-18T14:31:43.527Z,8.00
2019-03-18T14:34:12.605Z,7.90
2019-03-18T14:37:01.083Z,7.90
2019-03-18T14:39:49.660Z,7.80
2019-03-18T14:42:38.574Z,7.70
2019-03-18T14:45:27.066Z,7.80
2019-03-18T14:48:15.535Z,7.90
2019-03-18T14:51:03.974Z,7.50
2019-03-18T14:53:52.388Z,7.40
2019-03-18T14:56:40.775Z,7.40
2019-03-18T14:59:29.247Z,7.40
2019-03-18T15:02:17.623Z,7.40
2019-03-18T15:05:06.624Z,7.50
2019-03-18T15:07:55.011Z,7.80
2019-03-18T15:10:43.531Z,8.00
2019-03-18T15:13:31.892Z,8.10
2019-03-18T15:16:20.344Z,8.10
2019-03-18T15:19:08.776Z,7.90
2019-03-18T15:21:58.655Z,7.80
2019-03-18T15:24:47.392Z,7.80
2019-03-18T15:27:35.927Z,7.90
2019-03-18T15:30:24.430Z,8.10
2019-03-18T15:33:13.337Z,8.10
2019-03-18T15:36:01.771Z,8.10
2019-03-18T15:38:50.191Z,7.90
2019-03-18T15:41:39.025Z,7.90
2019-03-18T15:44:27.402Z,7.80
2019-03-18T15:47:16.117Z,7.90
2019-03-18T15:49:45.435Z,8.20
2019-03-18T15:55:29.393Z,8.10
2019-03-18T15:58:17.907Z,8.20
2019-03-18T16:00:59.454Z,8.30
2019-03-18T16:03:40.348Z,8.00
2019-03-18T16:06:21.730Z,8.10
2019-03-18T16:09:03.638Z,8.10
2019-03-18T16:11:44.372Z,8.00
2019-03-18T16:14:25.712Z,7.90
2019-03-18T16:17:07.169Z,7.70
2019-03-18T16:19:48.341Z,7.70
2019-03-18T16:22:29.351Z,7.70
2019-03-18T16:25:10.139Z,7.60
2019-03-18T16:27:51.139Z,7.60
2019-03-18T16:30:31.777Z,7.60
2019-03-18T16:33:13.496Z,7.70
2019-03-18T16:35:54.054Z,7.50
2019-03-18T16:44:26.411Z,7.50
2019-03-18T16:47:07.627Z,7.50
2019-03-18T16:49:48.505Z,7.30
2019-03-18T16:52:35.659Z,7.20
2019-03-18T16:55:12.401Z,7.20
2019-03-18T16:57:54.016Z,7.20
2019-03-18T17:00:35.361Z,7.20
2019-03-18T17:03:16.980Z,7.10
2019-03-18T17:05:58.273Z,7.10
2019-03-18T17:08:39.405Z,7.10
2019-03-18T17:11:20.379Z,6.90
2019-03-18T17:14:01.762Z,6.80
2019-03-18T17:16:42.988Z,6.70
2019-03-18T17:19:24.123Z,6.70
2019-03-18T17:22:05.695Z,6.60
2019-03-18T17:24:49.180Z,6.60
2019-03-18T17:27:30.269Z,6.50
2019-03-18T17:30:14.774Z,6.50
2019-03-18T17:32:55.683Z,6.40
2019-03-18T17:35:39.234Z,6.40
2019-03-18T17:38:20.696Z,6.30
2019-03-18T17:49:41.696Z,6.30
2019-03-18T17:52:22.825Z,6.30
2019-03-18T17:55:03.896Z,6.20
2019-03-18T17:57:45.263Z,6.20
2019-03-18T18:00:32.883Z,6.30
2019-03-18T18:03:15.822Z,6.20
2019-03-18T18:05:56.736Z,6.10
2019-03-18T18:08:37.631Z,6.10
2019-03-18T18:11:19.453Z,6.10
2019-03-18T18:14:00.221Z,6.10
2019-03-18T18:16:41.061Z,6.10
2019-03-18T18:19:22.263Z,5.90
2019-03-18T18:22:03.800Z,5.80
2019-03-18T18:24:45.881Z,5.80
2019-03-18T18:27:26.985Z,5.70
2019-03-18T18:30:08.214Z,5.70
2019-03-18T18:32:49.381Z,5.70
2019-03-18T18:35:30.469Z,5.60
2019-03-18T18:38:11.113Z,5.60
2019-03-18T18:40:52.985Z,5.50
2019-03-18T18:43:34.563Z,5.40
2019-03-18T18:46:15.439Z,5.30
2019-03-18T18:48:56.069Z,5.30
2019-03-18T18:51:37.495Z,5.30
2019-03-18T18:54:19.034Z,5.30
2019-03-18T18:56:48.881Z,5.20
2019-03-18T18:59:37.432Z,5.10
2019-03-18T19:02:21.641Z,4.90
2019-03-18T19:05:08.407Z,4.80
2019-03-18T19:07:49.617Z,4.70
2019-03-18T19:10:33.627Z,4.60
2019-03-18T19:13:14.547Z,4.40
2019-03-18T19:15:55.389Z,4.30
2019-03-18T19:18:38.064Z,4.10
2019-03-18T19:21:18.798Z,4.00
2019-03-18T19:23:59.525Z,3.80
2019-03-18T19:26:40.771Z,3.60
2019-03-18T19:29:22.033Z,3.40
2019-03-18T19:32:02.773Z,3.40
2019-03-18T19:34:32.187Z,3.20
2019-03-18T19:37:20.617Z,3.00
2019-03-18T19:40:09.902Z,2.90
2019-03-18T19:42:58.368Z,2.80
2019-03-18T19:45:46.795Z,2.70
2019-03-18T19:48:35.690Z,2.60
2019-03-18T19:51:24.135Z,2.50
2019-03-18T19:54:13.015Z,2.50
2019-03-18T19:57:33.567Z,2.40
2019-03-18T19:59:45.500Z,2.30
2019-03-18T20:02:27.174Z,2.20
2019-03-18T20:05:15.085Z,2.10
2019-03-18T20:07:52.171Z,2.10
2019-03-18T20:10:33.163Z,2.10
2019-03-18T20:13:14.749Z,2.00
2019-03-18T20:15:55.919Z,2.20
2019-03-18T20:18:37.316Z,2.40
2019-03-18T20:21:18.687Z,2.30
2019-03-18T20:24:01.043Z,2.30
2019-03-18T20:26:42.711Z,2.20
2019-03-18T20:29:25.199Z,2.10
2019-03-18T20:31:55.141Z,2.00
2019-03-18T20:34:43.696Z,1.90
2019-03-18T20:37:32.522Z,1.80
2019-03-18T20:40:21.028Z,1.60
2019-03-18T20:43:09.505Z,1.40
2019-03-18T20:45:57.918Z,1.40
2019-03-18T20:48:46.310Z,1.50
2019-03-18T20:51:34.738Z,1.50
2019-03-18T20:54:23.257Z,1.60
2019-03-18T20:57:11.663Z,1.40
2019-03-18T20:59:52.281Z,1.30
2019-03-18T21:05:34.654Z,1.50
2019-03-18T21:08:15.701Z,1.50
2019-03-18T21:10:57.081Z,1.50
2019-03-18T21:13:37.970Z,1.40
2019-03-18T21:16:19.149Z,1.40
2019-03-18T21:19:01.528Z,1.30
2019-03-18T21:21:42.255Z,1.20
2019-03-18T21:24:24.093Z,1.10
2019-03-18T21:26:53.689Z,1.20
2019-03-18T21:29:42.137Z,1.30
2019-03-18T21:32:30.558Z,1.20
2019-03-18T21:35:19.377Z,1.30
2019-03-18T21:38:07.827Z,1.30
2019-03-18T21:41:00.221Z,1.30
2019-03-18T21:43:48.684Z,1.30
2019-03-18T21:46:37.113Z,1.20
2019-03-18T21:49:25.580Z,1.20
2019-03-18T21:52:14.000Z,1.10
2019-03-18T21:55:02.432Z,1.10
2019-03-18T21:57:50.917Z,1.20
2019-03-18T22:00:32.320Z,1.20
2019-03-18T22:03:13.601Z,1.20
2019-03-18T22:05:54.707Z,1.20
2019-03-18T22:08:35.488Z,1.20
2019-03-18T22:11:16.756Z,1.20
2019-03-18T22:13:58.044Z,1.30
2019-03-18T22:16:39.229Z,1.20
2019-03-18T22:19:20.151Z,1.20
2019-03-18T22:22:01.127Z,1.20
2019-03-18T22:24:45.509Z,1.10
2019-03-18T22:27:26.817Z,1.20
2019-03-18T22:30:07.955Z,1.10
2019-03-18T22:32:49.809Z,1.10
2019-03-18T22:35:31.336Z,1.10
2019-03-18T22:38:12.765Z,1.10
2019-03-18T22:40:54.085Z,1.20
2019-03-18T22:43:35.305Z,1.30
2019-03-18T22:46:16.457Z,1.30
2019-03-18T22:48:57.763Z,1.30
2019-03-18T22:51:38.980Z,1.40
2019-03-18T22:54:20.158Z,1.40
2019-03-18T22:57:01.141Z,1.40
2019-03-18T22:59:42.390Z,1.40
2019-03-18T23:02:23.470Z,1.50
2019-03-18T23:05:04.975Z,1.40
2019-03-18T23:07:46.104Z,1.40
2019-03-18T23:10:26.710Z,1.40
2019-03-18T23:13:08.021Z,1.40
2019-03-18T23:15:49.321Z,1.30
2019-03-18T23:18:29.941Z,1.40
2019-03-18T23:21:11.421Z,1.40
2019-03-18T23:23:52.740Z,1.30
2019-03-18T23:26:33.895Z,1.30
2019-03-18T23:29:15.395Z,1.30
2019-03-18T23:35:08.637Z,1.30
2019-03-18T23:37:49.831Z,1.20
2019-03-18T23:40:31.135Z,1.20
2019-03-18T23:43:12.136Z,1.20
2019-03-18T23:45:53.411Z,1.20
2019-03-18T23:48:34.408Z,1.20
2019-03-18T23:51:15.648Z,1.20
2019-03-18T23:53:56.799Z,1.10
